< < Back
Terminal Aerodrome Forecast


Current Version              Previous Versions:   1  2  3  4  5  6  7  8  9  

Terminal Aerodrome Forecast

620
FTUS44 KOHX 182200 AAA
TAFBNA
TAF AMD
KBNA 182201Z 1822/1918 01004KT P6SM SCT015 OVC050
     FM190400 01003KT P6SM SCT010 BKN025
     FM191300 03004KT P6SM BKN040=



Latest METAR

591
SAUS70 KWBC 190100
MTRBNA
METAR KBNA 190053Z 36003KT 9SM OVC048 03/M01 A3023 RMK AO2 SLP241
T00331006


USA.gov is the U.S. government's official web portal to all federal, state and local government web resources and services.